EVRA/RIX METAR and TAF weather

Enter ICAO airport designator
Station Type Date Time Source
EVRA METAR 2022/09/28 19:20 UTC NOAA

EVRA 281920Z VRB04KT CAVOK 09/05 Q1001 NOSIG


Station Type Date Time Source
EVRA Decoded METAR 2022/09/28 19:20 UTC NOAA

Riga International Airport, Latvia (EVRA) 56-55N 023-58E
Sep 28, 2022 - 03:20 PM EDT / 2022.09.28 1920 UTC
Wind: Variable at 5 MPH (4 KT):0
Visibility: greater than 7 mile(s):0
Temperature: 48 F (9 C)
Dew Point: 41 F (5 C)
Relative Humidity: 75%
Pressure (altimeter): 29.56 in. Hg (1001 hPa)
ob: EVRA 281920Z VRB04KT CAVOK 09/05 Q1001 NOSIG
cycle: 19

Station Type Date Time Source
EVRA TAF 2022/09/28 18:03 UTC NOAA

TAF TAF EVRA 281701Z 2818/2918 09010KT 9999 SCT030
TEMPO 2900/2904 4000 -SHRA SCT010CB BKN015
BECMG 2904/2905 OVC010
TEMPO 2905/2910 3000 -RA BR BKN002 OVC007
BECMG 2910/2911 18005KT BKN015
TEMPO 2911/2918 BKN010CB

Example: see airport list